Hermann - S — V2EI6 — position and weather

sailwx.info

Track history (hours):
 
Tides and Currents Weather Stations Pressure Air Temp Water Temp Dewpoint Dewpoint Depression Visibility Wind Speed Wind Dir Waves Ship Positions

Hermann - S

Last reported at 2016-Sep-25 07:33 UTC. Time now 2016-Oct-01 10:26 UTC.
Position N 36°16' E 014°41'.

Length 190 m; draft 10.6 m.

Type: Ship. MMSI: 305441000.

Date/timePositionNaut miles runAvg speedWind from/ knotsBaromVisibWave heightAir tempDewpointWater temp
2016-Sep-25 07:33N 36°16' E 014°41'4013.3
2016-Sep-25 04:33N 36°26' E 013°53'45113.5
2016-Sep-23 19:08N 37°17' E 004°34'20113.8
2016-Sep-23 04:33N 36°45' E 000°25'1413.7
2016-Sep-23 03:33N 36°42' E 000°09'2713.5
2016-Sep-23 01:33N 36°37' W 000°24'1313.7
2016-Sep-23 00:34N 36°34' W 000°41'5714.1
2016-Sep-22 20:31N 36°23' W 001°50'41111.8
2016-Sep-21 09:33N 38°31' W 010°03'1313.2
2016-Sep-21 08:33N 38°44' W 010°06'  
2016-Sep-19 03:15N 49°22' W 004°39'1013.4
2016-Sep-19 02:31N 49°27' W 004°26'2915.0
2016-Sep-19 00:33N 49°41' W 003°46'12012.9
2016-Sep-18 15:14N 50°21' W 000°50'1416.2
2016-Sep-18 14:20N 50°24' W 000°28'15112.8
2016-Sep-18 02:34N 51°24' E 003°11'1111.4
2016-Sep-18 01:34N 51°25' E 003°30'8 7.9
2016-Sep-18 00:33N 51°25' E 003°42'8 3.8
2016-Sep-17 22:33N 51°19' E 003°50'3 3.5
2016-Sep-17 21:33N 51°16' E 003°50'5 4.9
2016-Sep-17 20:33N 51°11' E 003°48'6 4.4
2016-Sep-17 19:16N 51°06' E 003°44'0 0.0
2016-Sep-17 13:31N 51°06' E 003°44'0 0.0
2016-Sep-17 12:25N 51°06' E 003°44'0 0.0
2016-Sep-17 10:31N 51°06' E 003°44'0 0.0
2016-Sep-17 09:31N 51°06' E 003°44'0 0.0
2016-Sep-17 08:31N 51°06' E 003°44'0 0.0
2016-Sep-17 07:31N 51°06' E 003°44'0 0.0
2016-Sep-17 05:31N 51°06' E 003°44'0 0.0
2016-Sep-17 04:28N 51°06' E 003°44'0 0.0
2016-Sep-17 00:31N 51°06' E 003°44'0 0.0
2016-Sep-16 17:31N 51°06' E 003°44'0 0.0
2016-Sep-16 15:31N 51°06' E 003°44'0 0.0
2016-Sep-16 12:31N 51°06' E 003°44'0 0.0
2016-Sep-16 09:25N 51°06' E 003°44'0 0.0
2016-Sep-16 07:31N 51°06' E 003°44'0 0.0
2016-Sep-16 02:28N 51°06' E 003°44'0 0.0
2016-Sep-16 00:31N 51°06' E 003°44'0 0.0
2016-Sep-15 20:25N 51°06' E 003°44'0 0.0
2016-Sep-15 18:31N 51°06' E 003°44'0 0.0
2016-Sep-15 12:31N 51°06' E 003°44'0 0.0
2016-Sep-15 11:28N 51°06' E 003°44'  
Track history (hours):
 
Tides and Currents Weather Stations Pressure Air Temp Water Temp Dewpoint Dewpoint Depression Visibility Wind Speed Wind Dir Waves Ship Positions

Hermann - S

Last reported at 2016-Sep-25 07:33 UTC. Time now 2016-Oct-01 10:26 UTC.
Position N 36°16' E 014°41'.

Length 190 m; draft 10.6 m.

Type: Ship. MMSI: 305441000.

Date/timePositionNaut miles runAvg speedWind from/ knotsBaromVisibWave heightAir tempDewpointWater temp
2016-Sep-25 07:33N 36°16' E 014°41'4013.3
2016-Sep-25 04:33N 36°26' E 013°53'45113.5
2016-Sep-23 19:08N 37°17' E 004°34'20113.8
2016-Sep-23 04:33N 36°45' E 000°25'1413.7
2016-Sep-23 03:33N 36°42' E 000°09'2713.5
2016-Sep-23 01:33N 36°37' W 000°24'1313.7
2016-Sep-23 00:34N 36°34' W 000°41'5714.1
2016-Sep-22 20:31N 36°23' W 001°50'41111.8
2016-Sep-21 09:33N 38°31' W 010°03'1313.2
2016-Sep-21 08:33N 38°44' W 010°06'  
2016-Sep-19 03:15N 49°22' W 004°39'1013.4
2016-Sep-19 02:31N 49°27' W 004°26'2915.0
2016-Sep-19 00:33N 49°41' W 003°46'12012.9
2016-Sep-18 15:14N 50°21' W 000°50'1416.2
2016-Sep-18 14:20N 50°24' W 000°28'15112.8
2016-Sep-18 02:34N 51°24' E 003°11'1111.4
2016-Sep-18 01:34N 51°25' E 003°30'8 7.9
2016-Sep-18 00:33N 51°25' E 003°42'8 3.8
2016-Sep-17 22:33N 51°19' E 003°50'3 3.5
2016-Sep-17 21:33N 51°16' E 003°50'5 4.9
2016-Sep-17 20:33N 51°11' E 003°48'6 4.4
2016-Sep-17 19:16N 51°06' E 003°44'0 0.0
2016-Sep-17 13:31N 51°06' E 003°44'0 0.0
2016-Sep-17 12:25N 51°06' E 003°44'0 0.0
2016-Sep-17 10:31N 51°06' E 003°44'0 0.0
2016-Sep-17 09:31N 51°06' E 003°44'0 0.0
2016-Sep-17 08:31N 51°06' E 003°44'0 0.0
2016-Sep-17 07:31N 51°06' E 003°44'0 0.0
2016-Sep-17 05:31N 51°06' E 003°44'0 0.0
2016-Sep-17 04:28N 51°06' E 003°44'0 0.0
2016-Sep-17 00:31N 51°06' E 003°44'0 0.0
2016-Sep-16 17:31N 51°06' E 003°44'0 0.0
2016-Sep-16 15:31N 51°06' E 003°44'0 0.0
2016-Sep-16 12:31N 51°06' E 003°44'0 0.0
2016-Sep-16 09:25N 51°06' E 003°44'0 0.0
2016-Sep-16 07:31N 51°06' E 003°44'0 0.0
2016-Sep-16 02:28N 51°06' E 003°44'0 0.0
2016-Sep-16 00:31N 51°06' E 003°44'0 0.0
2016-Sep-15 20:25N 51°06' E 003°44'0 0.0
2016-Sep-15 18:31N 51°06' E 003°44'0 0.0
2016-Sep-15 12:31N 51°06' E 003°44'0 0.0
2016-Sep-15 11:28N 51°06' E 003°44'  

Dump ship's entire track history